sensor_id;sensor_type;location;lat;lon;timestamp;pressure;altitude;pressure_sealevel;temperature;humidity
54389;BME280;40975;50.390;8.640;2023-06-14T00:00:17;98793.22;;;12.32;92.31
54389;BME280;40975;50.390;8.640;2023-06-14T00:02:42;98793.03;;;12.34;92.32
54389;BME280;40975;50.390;8.640;2023-06-14T00:05:08;98784.72;;;12.45;90.96
54389;BME280;40975;50.390;8.640;2023-06-14T00:07:35;98794.84;;;12.33;90.96
54389;BME280;40975;50.390;8.640;2023-06-14T00:10:02;98788.38;;;12.27;92.16
54389;BME280;40975;50.390;8.640;2023-06-14T00:12:27;98795.69;;;12.34;91.94
54389;BME280;40975;50.390;8.640;2023-06-14T00:14:53;98800.53;;;12.30;91.13
54389;BME280;40975;50.390;8.640;2023-06-14T00:17:18;98791.88;;;12.28;92.41
54389;BME280;40975;50.390;8.640;2023-06-14T00:19:43;98799.84;;;12.28;93.12
54389;BME280;40975;50.390;8.640;2023-06-14T00:22:09;98800.84;;;12.19;93.23
54389;BME280;40975;50.390;8.640;2023-06-14T00:24:34;98804.00;;;12.14;92.75
54389;BME280;40975;50.390;8.640;2023-06-14T00:26:59;98801.34;;;12.14;93.37
54389;BME280;40975;50.390;8.640;2023-06-14T00:29:25;98801.84;;;12.18;93.78
54389;BME280;40975;50.390;8.640;2023-06-14T00:31:50;98792.19;;;12.08;93.80
54389;BME280;40975;50.390;8.640;2023-06-14T00:34:17;98798.50;;;12.07;92.93
54389;BME280;40975;50.390;8.640;2023-06-14T00:36:43;98795.16;;;12.05;92.20
54389;BME280;40975;50.390;8.640;2023-06-14T00:39:08;98796.13;;;11.96;92.56
54389;BME280;40975;50.390;8.640;2023-06-14T00:41:34;98799.63;;;11.96;93.72
54389;BME280;40975;50.390;8.640;2023-06-14T00:44:00;98801.44;;;11.96;93.45
54389;BME280;40975;50.390;8.640;2023-06-14T00:46:25;98796.59;;;11.91;93.64
54389;BME280;40975;50.390;8.640;2023-06-14T00:48:51;98793.75;;;11.85;93.39
54389;BME280;40975;50.390;8.640;2023-06-14T00:51:16;98799.06;;;11.85;93.46
54389;BME280;40975;50.390;8.640;2023-06-14T00:53:42;98798.56;;;11.81;94.39
54389;BME280;40975;50.390;8.640;2023-06-14T00:56:11;98796.78;;;11.81;94.32
54389;BME280;40975;50.390;8.640;2023-06-14T00:58:38;98787.94;;;11.73;95.13
54389;BME280;40975;50.390;8.640;2023-06-14T01:01:03;98798.75;;;11.79;95.14
54389;BME280;40975;50.390;8.640;2023-06-14T01:03:29;98804.22;;;11.78;95.29
54389;BME280;40975;50.390;8.640;2023-06-14T01:06:01;98800.06;;;11.75;96.17
54389;BME280;40975;50.390;8.640;2023-06-14T01:08:38;98804.69;;;11.73;96.46
54389;BME280;40975;50.390;8.640;2023-06-14T01:11:12;98812.84;;;11.72;96.02
54389;BME280;40975;50.390;8.640;2023-06-14T01:13:44;98813.13;;;11.60;95.26
54389;BME280;40975;50.390;8.640;2023-06-14T01:16:11;98806.97;;;11.51;96.11
54389;BME280;40975;50.390;8.640;2023-06-14T01:18:37;98801.66;;;11.51;96.04
54389;BME280;40975;50.390;8.640;2023-06-14T01:21:03;98810.47;;;11.60;95.07
54389;BME280;40975;50.390;8.640;2023-06-14T01:23:31;98808.47;;;11.54;95.38
54389;BME280;40975;50.390;8.640;2023-06-14T01:26:00;98805.66;;;11.64;95.10
54389;BME280;40975;50.390;8.640;2023-06-14T01:28:31;98804.84;;;11.63;94.77
54389;BME280;40975;50.390;8.640;2023-06-14T01:31:00;98800.34;;;11.64;93.13
54389;BME280;40975;50.390;8.640;2023-06-14T01:33:30;98806.88;;;11.78;93.10
54389;BME280;40975;50.390;8.640;2023-06-14T01:35:57;98806.75;;;11.88;91.87
54389;BME280;40975;50.390;8.640;2023-06-14T01:38:26;98801.59;;;11.94;91.64
54389;BME280;40975;50.390;8.640;2023-06-14T01:40:53;98802.16;;;11.98;91.00
54389;BME280;40975;50.390;8.640;2023-06-14T01:43:20;98799.81;;;12.03;90.51
54389;BME280;40975;50.390;8.640;2023-06-14T01:45:47;98797.31;;;12.10;90.42
54389;BME280;40975;50.390;8.640;2023-06-14T01:48:14;98801.03;;;12.17;89.33
54389;BME280;40975;50.390;8.640;2023-06-14T01:50:39;98804.31;;;12.19;88.95
54389;BME280;40975;50.390;8.640;2023-06-14T01:53:09;98805.66;;;12.23;88.89
54389;BME280;40975;50.390;8.640;2023-06-14T01:55:36;98809.31;;;12.31;88.57
54389;BME280;40975;50.390;8.640;2023-06-14T01:58:09;98803.31;;;12.28;88.18
54389;BME280;40975;50.390;8.640;2023-06-14T02:00:35;98805.66;;;12.32;87.84
54389;BME280;40975;50.390;8.640;2023-06-14T02:03:00;98798.00;;;12.28;87.78
54389;BME280;40975;50.390;8.640;2023-06-14T02:05:26;98797.88;;;12.30;87.65
54389;BME280;40975;50.390;8.640;2023-06-14T02:07:52;98801.03;;;12.25;88.03
54389;BME280;40975;50.390;8.640;2023-06-14T02:10:19;98805.84;;;12.30;88.03
54389;BME280;40975;50.390;8.640;2023-06-14T02:12:46;98807.50;;;12.31;87.71
54389;BME280;40975;50.390;8.640;2023-06-14T02:15:11;98802.69;;;12.26;87.59
54389;BME280;40975;50.390;8.640;2023-06-14T02:17:42;98809.31;;;12.06;88.89
54389;BME280;40975;50.390;8.640;2023-06-14T02:20:09;98806.63;;;11.97;89.95
54389;BME280;40975;50.390;8.640;2023-06-14T02:22:34;98810.13;;;11.98;90.19
54389;BME280;40975;50.390;8.640;2023-06-14T02:25:00;98808.81;;;12.02;89.73
54389;BME280;40975;50.390;8.640;2023-06-14T02:27:25;98813.47;;;12.08;88.99
54389;BME280;40975;50.390;8.640;2023-06-14T02:29:51;98813.97;;;12.12;88.85
54389;BME280;40975;50.390;8.640;2023-06-14T02:32:16;98817.78;;;12.18;89.28
54389;BME280;40975;50.390;8.640;2023-06-14T02:34:41;98816.81;;;12.19;88.81
54389;BME280;40975;50.390;8.640;2023-06-14T02:37:07;98821.31;;;12.26;87.96
54389;BME280;40975;50.390;8.640;2023-06-14T02:39:33;98820.81;;;12.31;87.51
54389;BME280;40975;50.390;8.640;2023-06-14T02:41:58;98821.13;;;12.36;87.08
54389;BME280;40975;50.390;8.640;2023-06-14T02:44:25;98827.44;;;12.43;86.34
54389;BME280;40975;50.390;8.640;2023-06-14T02:46:54;98823.47;;;12.48;87.09
54389;BME280;40975;50.390;8.640;2023-06-14T02:49:21;98836.78;;;12.56;85.86
54389;BME280;40975;50.390;8.640;2023-06-14T02:51:46;98842.09;;;12.64;85.83
54389;BME280;40975;50.390;8.640;2023-06-14T02:54:11;98836.94;;;12.63;85.61
54389;BME280;40975;50.390;8.640;2023-06-14T02:56:38;98840.94;;;12.75;84.60
54389;BME280;40975;50.390;8.640;2023-06-14T02:59:04;98837.94;;;12.70;84.32
54389;BME280;40975;50.390;8.640;2023-06-14T03:01:30;98843.13;;;12.71;85.18
54389;BME280;40975;50.390;8.640;2023-06-14T03:04:03;98849.44;;;12.70;84.88
54389;BME280;40975;50.390;8.640;2023-06-14T03:06:31;98845.94;;;12.70;85.30
54389;BME280;40975;50.390;8.640;2023-06-14T03:08:58;98852.09;;;12.70;84.97
54389;BME280;40975;50.390;8.640;2023-06-14T03:11:33;98855.91;;;12.68;85.42
54389;BME280;40975;50.390;8.640;2023-06-14T03:13:58;98858.91;;;12.65;84.96
54389;BME280;40975;50.390;8.640;2023-06-14T03:16:25;98853.91;;;12.62;84.96
54389;BME280;40975;50.390;8.640;2023-06-14T03:18:54;98855.41;;;12.64;85.55
54389;BME280;40975;50.390;8.640;2023-06-14T03:21:20;98856.75;;;12.60;85.53
54389;BME280;40975;50.390;8.640;2023-06-14T03:23:46;98862.56;;;12.64;84.91
54389;BME280;40975;50.390;8.640;2023-06-14T03:26:13;98864.41;;;12.71;85.02
54389;BME280;40975;50.390;8.640;2023-06-14T03:28:40;98864.72;;;12.77;84.11
54389;BME280;40975;50.390;8.640;2023-06-14T03:31:06;98874.22;;;12.79;84.02
54389;BME280;40975;50.390;8.640;2023-06-14T03:33:32;98873.88;;;12.82;84.33
54389;BME280;40975;50.390;8.640;2023-06-14T03:35:57;98875.22;;;12.86;83.99
54389;BME280;40975;50.390;8.640;2023-06-14T03:38:23;98870.06;;;12.85;84.29
54389;BME280;40975;50.390;8.640;2023-06-14T03:40:49;98870.72;;;12.87;84.36
54389;BME280;40975;50.390;8.640;2023-06-14T03:43:15;98880.19;;;12.89;84.31
54389;BME280;40975;50.390;8.640;2023-06-14T03:45:41;98877.72;;;12.88;84.78
54389;BME280;40975;50.390;8.640;2023-06-14T03:48:08;98891.69;;;12.90;84.75
54389;BME280;40975;50.390;8.640;2023-06-14T03:50:34;98894.84;;;12.94;84.76
54389;BME280;40975;50.390;8.640;2023-06-14T03:53:06;98897.84;;;12.90;85.23
54389;BME280;40975;50.390;8.640;2023-06-14T03:55:31;98898.53;;;12.93;85.33
54389;BME280;40975;50.390;8.640;2023-06-14T03:57:58;98904.16;;;12.98;84.84
54389;BME280;40975;50.390;8.640;2023-06-14T04:00:24;98906.00;;;12.97;84.11
54389;BME280;40975;50.390;8.640;2023-06-14T04:02:49;98898.84;;;12.98;85.29
54389;BME280;40975;50.390;8.640;2023-06-14T04:05:15;98901.84;;;13.03;84.87
54389;BME280;40975;50.390;8.640;2023-06-14T04:07:47;98906.00;;;13.05;85.06
54389;BME280;40975;50.390;8.640;2023-06-14T04:10:15;98907.66;;;13.06;85.31
54389;BME280;40975;50.390;8.640;2023-06-14T04:12:40;98910.84;;;13.02;85.88
54389;BME280;40975;50.390;8.640;2023-06-14T04:15:06;98912.34;;;12.96;87.45
54389;BME280;40975;50.390;8.640;2023-06-14T04:17:33;98915.66;;;13.06;86.81
54389;BME280;40975;50.390;8.640;2023-06-14T04:20:00;98914.00;;;13.05;85.79
54389;BME280;40975;50.390;8.640;2023-06-14T04:22:26;98911.31;;;13.14;86.53
54389;BME280;40975;50.390;8.640;2023-06-14T04:24:56;98922.50;;;13.17;86.09
54389;BME280;40975;50.390;8.640;2023-06-14T04:27:22;98921.81;;;13.15;86.34
54389;BME280;40975;50.390;8.640;2023-06-14T04:29:51;98921.31;;;13.20;86.37
54389;BME280;40975;50.390;8.640;2023-06-14T04:32:18;98924.13;;;13.18;87.82
54389;BME280;40975;50.390;8.640;2023-06-14T04:34:44;98935.47;;;13.20;88.21
54389;BME280;40975;50.390;8.640;2023-06-14T04:37:11;98930.81;;;13.14;87.37
54389;BME280;40975;50.390;8.640;2023-06-14T04:39:40;98935.28;;;13.14;87.60
54389;BME280;40975;50.390;8.640;2023-06-14T04:42:07;98934.47;;;13.21;86.93
54389;BME280;40975;50.390;8.640;2023-06-14T04:44:33;98937.28;;;13.36;83.59
54389;BME280;40975;50.390;8.640;2023-06-14T04:47:02;98934.63;;;13.45;84.16
54389;BME280;40975;50.390;8.640;2023-06-14T04:49:27;98937.09;;;13.63;83.27
54389;BME280;40975;50.390;8.640;2023-06-14T04:51:56;98939.94;;;13.61;84.56
54389;BME280;40975;50.390;8.640;2023-06-14T04:54:27;98937.50;;;13.83;81.81
54389;BME280;40975;50.390;8.640;2023-06-14T04:56:53;98943.81;;;13.98;81.83
54389;BME280;40975;50.390;8.640;2023-06-14T04:59:22;98951.44;;;14.10;80.90
54389;BME280;40975;50.390;8.640;2023-06-14T05:01:51;98951.44;;;14.10;80.87
54389;BME280;40975;50.390;8.640;2023-06-14T05:04:18;98951.66;;;14.32;79.07
54389;BME280;40975;50.390;8.640;2023-06-14T05:06:44;98952.75;;;14.45;78.19
54389;BME280;40975;50.390;8.640;2023-06-14T05:09:14;98955.03;;;14.57;77.26
54389;BME280;40975;50.390;8.640;2023-06-14T05:11:40;98960.53;;;14.55;77.53
54389;BME280;40975;50.390;8.640;2023-06-14T05:14:07;98948.97;;;14.63;75.22
54389;BME280;40975;50.390;8.640;2023-06-14T05:16:33;98955.41;;;14.77;76.39
54389;BME280;40975;50.390;8.640;2023-06-14T05:18:59;98947.88;;;14.81;77.00
54389;BME280;40975;50.390;8.640;2023-06-14T05:21:24;98950.31;;;14.90;76.25
54389;BME280;40975;50.390;8.640;2023-06-14T05:23:50;98950.72;;;15.02;75.14
54389;BME280;40975;50.390;8.640;2023-06-14T05:26:16;98955.19;;;15.10;76.19
54389;BME280;40975;50.390;8.640;2023-06-14T05:28:41;98952.97;;;15.14;75.84
54389;BME280;40975;50.390;8.640;2023-06-14T05:31:07;98961.72;;;15.22;75.67
54389;BME280;40975;50.390;8.640;2023-06-14T05:33:32;98953.22;;;15.42;74.47
54389;BME280;40975;50.390;8.640;2023-06-14T05:35:57;98966.34;;;15.82;72.31
54389;BME280;40975;50.390;8.640;2023-06-14T05:38:23;98965.97;;;16.30;70.76
54389;BME280;40975;50.390;8.640;2023-06-14T05:40:48;98970.75;;;16.93;67.17
54389;BME280;40975;50.390;8.640;2023-06-14T05:43:13;98959.41;;;17.13;65.33
54389;BME280;40975;50.390;8.640;2023-06-14T05:45:39;98971.44;;;17.45;63.28
54389;BME280;40975;50.390;8.640;2023-06-14T05:48:04;98975.84;;;18.16;60.38
54389;BME280;40975;50.390;8.640;2023-06-14T05:50:30;98984.72;;;18.79;59.04
54389;BME280;40975;50.390;8.640;2023-06-14T05:52:55;98986.66;;;19.19;57.76
54389;BME280;40975;50.390;8.640;2023-06-14T05:55:20;98988.28;;;19.94;55.01
54389;BME280;40975;50.390;8.640;2023-06-14T05:57:46;98992.09;;;20.31;53.21
54389;BME280;40975;50.390;8.640;2023-06-14T06:00:13;98990.47;;;20.69;51.82
54389;BME280;40975;50.390;8.640;2023-06-14T06:02:42;98998.31;;;21.16;51.66
54389;BME280;40975;50.390;8.640;2023-06-14T06:05:11;98992.03;;;21.48;49.20
54389;BME280;40975;50.390;8.640;2023-06-14T06:07:37;98981.34;;;21.34;48.99
54389;BME280;40975;50.390;8.640;2023-06-14T06:10:05;98985.81;;;20.90;49.61
54389;BME280;40975;50.390;8.640;2023-06-14T06:12:31;98994.09;;;21.20;49.76
54389;BME280;40975;50.390;8.640;2023-06-14T06:14:56;98997.56;;;21.59;49.50
54389;BME280;40975;50.390;8.640;2023-06-14T06:17:21;99003.25;;;21.19;49.22
54389;BME280;40975;50.390;8.640;2023-06-14T06:19:47;99006.03;;;21.63;48.57
54389;BME280;40975;50.390;8.640;2023-06-14T06:22:12;99007.34;;;21.79;48.16
54389;BME280;40975;50.390;8.640;2023-06-14T06:24:37;99012.00;;;21.72;49.17
54389;BME280;40975;50.390;8.640;2023-06-14T06:27:03;99000.22;;;21.85;48.46
54389;BME280;40975;50.390;8.640;2023-06-14T06:29:29;99007.34;;;21.79;48.20
54389;BME280;40975;50.390;8.640;2023-06-14T06:31:54;99011.69;;;21.80;48.64
54389;BME280;40975;50.390;8.640;2023-06-14T06:34:21;99007.34;;;21.54;48.93
54389;BME280;40975;50.390;8.640;2023-06-14T06:36:47;99006.72;;;21.77;48.22
54389;BME280;40975;50.390;8.640;2023-06-14T06:39:12;99013.91;;;21.39;49.31
54389;BME280;40975;50.390;8.640;2023-06-14T06:44:07;99017.63;;;20.67;52.03
54389;BME280;40975;50.390;8.640;2023-06-14T06:46:35;99023.66;;;20.17;53.26
54389;BME280;40975;50.390;8.640;2023-06-14T06:49:00;99025.72;;;20.22;53.49
54389;BME280;40975;50.390;8.640;2023-06-14T06:51:25;99020.81;;;19.99;54.25
54389;BME280;40975;50.390;8.640;2023-06-14T06:53:54;99021.00;;;19.64;56.00
54389;BME280;40975;50.390;8.640;2023-06-14T06:56:23;99017.91;;;19.53;57.37
54389;BME280;40975;50.390;8.640;2023-06-14T06:58:50;99010.66;;;19.40;57.69
54389;BME280;40975;50.390;8.640;2023-06-14T07:01:16;99009.84;;;19.53;59.00
54389;BME280;40975;50.390;8.640;2023-06-14T07:03:42;99012.91;;;19.97;54.29
54389;BME280;40975;50.390;8.640;2023-06-14T07:06:07;99015.59;;;19.97;53.08
54389;BME280;40975;50.390;8.640;2023-06-14T07:08:32;99012.06;;;19.83;54.10
54389;BME280;40975;50.390;8.640;2023-06-14T07:10:58;99019.56;;;19.95;53.62
54389;BME280;40975;50.390;8.640;2023-06-14T07:13:23;99022.00;;;20.10;53.27
54389;BME280;40975;50.390;8.640;2023-06-14T07:15:48;99032.59;;;19.98;52.66
54389;BME280;40975;50.390;8.640;2023-06-14T07:18:13;99030.94;;;19.97;52.52
54389;BME280;40975;50.390;8.640;2023-06-14T07:20:39;99027.56;;;20.22;53.13
54389;BME280;40975;50.390;8.640;2023-06-14T07:23:05;99037.88;;;20.45;52.44
54389;BME280;40975;50.390;8.640;2023-06-14T07:25:30;99031.69;;;20.31;52.36
54389;BME280;40975;50.390;8.640;2023-06-14T07:27:56;99038.09;;;20.37;52.62
54389;BME280;40975;50.390;8.640;2023-06-14T07:30:21;99040.84;;;20.23;51.85
54389;BME280;40975;50.390;8.640;2023-06-14T07:32:51;99033.41;;;20.71;51.57
54389;BME280;40975;50.390;8.640;2023-06-14T07:35:17;99038.25;;;21.33;50.26
54389;BME280;40975;50.390;8.640;2023-06-14T07:37:42;99033.59;;;21.15;50.24
54389;BME280;40975;50.390;8.640;2023-06-14T07:40:08;99040.53;;;21.61;50.17
54389;BME280;40975;50.390;8.640;2023-06-14T07:42:35;99037.41;;;21.32;50.19
54389;BME280;40975;50.390;8.640;2023-06-14T07:45:02;99034.56;;;21.78;50.27
54389;BME280;40975;50.390;8.640;2023-06-14T07:47:27;99044.38;;;22.34;48.15
54389;BME280;40975;50.390;8.640;2023-06-14T07:49:53;99033.53;;;22.90;45.03
54389;BME280;40975;50.390;8.640;2023-06-14T07:52:18;99046.03;;;23.03;44.45
54389;BME280;40975;50.390;8.640;2023-06-14T07:54:43;99044.78;;;23.60;43.54
54389;BME280;40975;50.390;8.640;2023-06-14T07:57:09;99050.22;;;24.31;42.61
54389;BME280;40975;50.390;8.640;2023-06-14T07:59:34;99035.88;;;23.95;40.92
54389;BME280;40975;50.390;8.640;2023-06-14T08:02:00;99045.03;;;24.30;41.06
54389;BME280;40975;50.390;8.640;2023-06-14T08:04:25;99047.88;;;24.64;41.08
54389;BME280;40975;50.390;8.640;2023-06-14T08:06:51;99041.13;;;25.07;41.20
54389;BME280;40975;50.390;8.640;2023-06-14T08:09:16;99040.59;;;24.64;39.69
54389;BME280;40975;50.390;8.640;2023-06-14T08:11:42;99041.56;;;24.87;40.76
54389;BME280;40975;50.390;8.640;2023-06-14T08:14:08;99048.22;;;25.54;40.27
54389;BME280;40975;50.390;8.640;2023-06-14T08:16:33;99048.41;;;26.65;37.89
54389;BME280;40975;50.390;8.640;2023-06-14T08:18:58;99064.34;;;26.34;37.71
54389;BME280;40975;50.390;8.640;2023-06-14T08:21:24;99048.00;;;25.95;37.83
54389;BME280;40975;50.390;8.640;2023-06-14T08:23:53;99069.81;;;26.79;37.17
54389;BME280;40975;50.390;8.640;2023-06-14T08:26:19;99073.31;;;27.02;36.26
54389;BME280;40975;50.390;8.640;2023-06-14T08:28:44;99073.38;;;27.34;35.70
54389;BME280;40975;50.390;8.640;2023-06-14T08:31:09;99072.66;;;26.89;35.52
54389;BME280;40975;50.390;8.640;2023-06-14T08:33:35;99067.78;;;27.46;35.18
54389;BME280;40975;50.390;8.640;2023-06-14T08:36:00;99062.59;;;27.44;34.44
54389;BME280;40975;50.390;8.640;2023-06-14T08:38:25;99058.38;;;28.02;33.54
54389;BME280;40975;50.390;8.640;2023-06-14T08:40:52;99061.44;;;27.73;34.32
54389;BME280;40975;50.390;8.640;2023-06-14T08:43:20;99065.34;;;27.50;34.35
54389;BME280;40975;50.390;8.640;2023-06-14T08:45:46;99063.28;;;28.05;33.63
54389;BME280;40975;50.390;8.640;2023-06-14T08:48:13;99056.13;;;28.36;33.02
54389;BME280;40975;50.390;8.640;2023-06-14T08:50:43;99051.22;;;28.33;33.61
54389;BME280;40975;50.390;8.640;2023-06-14T08:53:11;99070.50;;;28.21;34.08
54389;BME280;40975;50.390;8.640;2023-06-14T08:55:44;99054.41;;;28.15;33.33
54389;BME280;40975;50.390;8.640;2023-06-14T08:58:10;99062.44;;;27.61;34.13
54389;BME280;40975;50.390;8.640;2023-06-14T09:00:39;99054.44;;;28.89;33.00
54389;BME280;40975;50.390;8.640;2023-06-14T09:03:06;99058.53;;;28.96;33.75
54389;BME280;40975;50.390;8.640;2023-06-14T09:05:38;99055.41;;;26.39;35.39
54389;BME280;40975;50.390;8.640;2023-06-14T09:08:04;99051.53;;;27.61;34.65
54389;BME280;40975;50.390;8.640;2023-06-14T09:10:31;99068.81;;;28.10;33.70
54389;BME280;40975;50.390;8.640;2023-06-14T09:12:58;99060.53;;;28.48;33.08
54389;BME280;40975;50.390;8.640;2023-06-14T09:15:26;99060.47;;;28.32;33.95
54389;BME280;40975;50.390;8.640;2023-06-14T09:17:53;99067.16;;;26.84;35.16
54389;BME280;40975;50.390;8.640;2023-06-14T09:20:18;99065.13;;;24.46;38.36
54389;BME280;40975;50.390;8.640;2023-06-14T09:22:44;99059.53;;;24.24;38.89
54389;BME280;40975;50.390;8.640;2023-06-14T09:25:10;99071.88;;;25.93;37.35
54389;BME280;40975;50.390;8.640;2023-06-14T09:27:37;99072.13;;;25.11;37.39
54389;BME280;40975;50.390;8.640;2023-06-14T09:30:11;99062.56;;;26.06;37.61
54389;BME280;40975;50.390;8.640;2023-06-14T09:32:37;99077.44;;;27.04;35.54
54389;BME280;40975;50.390;8.640;2023-06-14T09:35:07;99097.09;;;29.05;32.73
54389;BME280;40975;50.390;8.640;2023-06-14T09:37:33;99082.94;;;29.70;31.69
54389;BME280;40975;50.390;8.640;2023-06-14T09:39:59;99087.59;;;30.01;30.36
54389;BME280;40975;50.390;8.640;2023-06-14T09:42:25;99088.28;;;28.82;31.64
54389;BME280;40975;50.390;8.640;2023-06-14T09:44:52;99076.38;;;26.83;34.78
54389;BME280;40975;50.390;8.640;2023-06-14T09:47:19;99076.00;;;28.32;33.38
54389;BME280;40975;50.390;8.640;2023-06-14T09:49:45;99083.25;;;29.84;31.70
54389;BME280;40975;50.390;8.640;2023-06-14T09:52:15;99085.38;;;30.99;30.42
54389;BME280;40975;50.390;8.640;2023-06-14T09:54:42;99082.44;;;29.99;29.78
54389;BME280;40975;50.390;8.640;2023-06-14T09:57:21;99073.94;;;29.39;30.56
54389;BME280;40975;50.390;8.640;2023-06-14T09:59:48;99086.75;;;30.11;30.55
54389;BME280;40975;50.390;8.640;2023-06-14T10:02:22;99077.47;;;28.50;31.76
54389;BME280;40975;50.390;8.640;2023-06-14T10:04:57;99084.16;;;26.96;34.74
54389;BME280;40975;50.390;8.640;2023-06-14T10:07:26;99085.97;;;29.33;32.13
54389;BME280;40975;50.390;8.640;2023-06-14T10:09:53;99086.22;;;30.03;31.19
54389;BME280;40975;50.390;8.640;2023-06-14T10:12:19;99091.78;;;31.64;30.83
54389;BME280;40975;50.390;8.640;2023-06-14T10:14:50;99079.50;;;31.16;29.26
54389;BME280;40975;50.390;8.640;2023-06-14T10:17:39;99072.69;;;30.64;29.23
54389;BME280;40975;50.390;8.640;2023-06-14T10:20:16;99077.13;;;29.15;31.76
54389;BME280;40975;50.390;8.640;2023-06-14T10:23:08;99076.41;;;29.66;31.23
54389;BME280;40975;50.390;8.640;2023-06-14T10:25:35;99071.97;;;27.97;32.86
54389;BME280;40975;50.390;8.640;2023-06-14T10:28:20;99065.41;;;26.11;35.68
54389;BME280;40975;50.390;8.640;2023-06-14T10:31:07;99054.59;;;25.02;37.71
54389;BME280;40975;50.390;8.640;2023-06-14T10:33:40;99064.78;;;26.26;37.45
54389;BME280;40975;50.390;8.640;2023-06-14T10:39:17;99068.28;;;28.13;34.62
54389;BME280;40975;50.390;8.640;2023-06-14T10:41:51;99072.03;;;29.55;31.48
54389;BME280;40975;50.390;8.640;2023-06-14T10:46:49;99070.09;;;26.60;35.57
54389;BME280;40975;50.390;8.640;2023-06-14T10:49:18;99063.44;;;27.83;35.08
54389;BME280;40975;50.390;8.640;2023-06-14T10:51:51;99064.28;;;28.90;33.53
54389;BME280;40975;50.390;8.640;2023-06-14T10:54:17;99059.81;;;27.12;33.29
54389;BME280;40975;50.390;8.640;2023-06-14T10:56:50;99055.41;;;26.00;35.99
54389;BME280;40975;50.390;8.640;2023-06-14T10:59:17;99058.34;;;25.59;36.47
54389;BME280;40975;50.390;8.640;2023-06-14T11:04:49;99060.81;;;24.86;39.22
54389;BME280;40975;50.390;8.640;2023-06-14T11:10:34;99060.28;;;27.04;37.08
54389;BME280;40975;50.390;8.640;2023-06-14T11:13:01;99058.25;;;27.21;34.18
54389;BME280;40975;50.390;8.640;2023-06-14T11:15:35;99055.09;;;25.79;35.42
54389;BME280;40975;50.390;8.640;2023-06-14T11:18:05;99059.09;;;24.96;37.79
54389;BME280;40975;50.390;8.640;2023-06-14T11:20:34;99063.69;;;24.67;38.59
54389;BME280;40975;50.390;8.640;2023-06-14T11:23:01;99064.72;;;24.13;40.07
54389;BME280;40975;50.390;8.640;2023-06-14T11:25:26;99059.97;;;23.61;40.22
54389;BME280;40975;50.390;8.640;2023-06-14T11:27:53;99053.09;;;23.47;40.58
54389;BME280;40975;50.390;8.640;2023-06-14T11:30:19;99059.00;;;23.13;41.43
54389;BME280;40975;50.390;8.640;2023-06-14T11:32:48;99059.50;;;23.10;41.47
54389;BME280;40975;50.390;8.640;2023-06-14T11:35:14;99067.25;;;22.88;42.06
54389;BME280;40975;50.390;8.640;2023-06-14T11:37:40;99059.31;;;22.93;42.04
54389;BME280;40975;50.390;8.640;2023-06-14T11:40:07;99056.78;;;23.10;43.35
54389;BME280;40975;50.390;8.640;2023-06-14T11:42:33;99058.97;;;23.32;42.05
54389;BME280;40975;50.390;8.640;2023-06-14T11:44:59;99052.66;;;24.45;39.76
54389;BME280;40975;50.390;8.640;2023-06-14T11:47:32;99046.25;;;24.10;40.57
54389;BME280;40975;50.390;8.640;2023-06-14T11:49:59;99051.72;;;23.91;39.59
54389;BME280;40975;50.390;8.640;2023-06-14T11:52:25;99050.09;;;23.55;40.38
54389;BME280;40975;50.390;8.640;2023-06-14T11:54:50;99046.06;;;23.15;40.88
54389;BME280;40975;50.390;8.640;2023-06-14T11:57:17;99045.09;;;22.97;42.31
54389;BME280;40975;50.390;8.640;2023-06-14T11:59:43;99043.84;;;22.81;43.67
54389;BME280;40975;50.390;8.640;2023-06-14T12:02:09;99054.31;;;22.59;43.20
54389;BME280;40975;50.390;8.640;2023-06-14T12:04:35;99042.44;;;22.79;43.39
54389;BME280;40975;50.390;8.640;2023-06-14T12:07:14;99049.41;;;22.68;43.49
54389;BME280;40975;50.390;8.640;2023-06-14T12:12:18;99051.44;;;24.00;41.32
54389;BME280;40975;50.390;8.640;2023-06-14T12:14:46;99048.19;;;24.38;40.31
54389;BME280;40975;50.390;8.640;2023-06-14T12:17:12;99048.97;;;24.92;40.10
54389;BME280;40975;50.390;8.640;2023-06-14T12:19:44;99048.59;;;24.18;40.67
54389;BME280;40975;50.390;8.640;2023-06-14T12:22:11;99041.59;;;23.75;41.84
54389;BME280;40975;50.390;8.640;2023-06-14T12:24:37;99055.72;;;23.53;42.37
54389;BME280;40975;50.390;8.640;2023-06-14T12:27:03;99057.75;;;23.16;42.20
54389;BME280;40975;50.390;8.640;2023-06-14T12:29:30;99044.47;;;23.26;42.51
54389;BME280;40975;50.390;8.640;2023-06-14T12:31:55;99045.72;;;23.78;41.90
54389;BME280;40975;50.390;8.640;2023-06-14T12:34:26;99050.94;;;24.15;41.85
54389;BME280;40975;50.390;8.640;2023-06-14T12:36:55;99053.41;;;23.81;42.56
54389;BME280;40975;50.390;8.640;2023-06-14T12:39:21;99047.84;;;23.52;42.48
54389;BME280;40975;50.390;8.640;2023-06-14T12:41:47;99042.97;;;23.42;42.76
54389;BME280;40975;50.390;8.640;2023-06-14T12:44:14;99052.16;;;23.41;42.81
54389;BME280;40975;50.390;8.640;2023-06-14T12:46:41;99056.22;;;23.50;42.87
54389;BME280;40975;50.390;8.640;2023-06-14T12:49:13;99059.16;;;23.60;43.17
54389;BME280;40975;50.390;8.640;2023-06-14T12:51:39;99060.56;;;23.75;43.43
54389;BME280;40975;50.390;8.640;2023-06-14T12:54:05;99058.00;;;24.28;42.58
54389;BME280;40975;50.390;8.640;2023-06-14T12:56:30;99051.75;;;25.09;42.47
54389;BME280;40975;50.390;8.640;2023-06-14T12:58:56;99046.06;;;24.81;39.46
54389;BME280;40975;50.390;8.640;2023-06-14T13:01:21;99048.81;;;24.17;40.36
54389;BME280;40975;50.390;8.640;2023-06-14T13:03:47;99058.94;;;24.21;40.87
54389;BME280;40975;50.390;8.640;2023-06-14T13:06:13;99057.63;;;24.36;41.67
54389;BME280;40975;50.390;8.640;2023-06-14T13:08:38;99057.78;;;24.17;39.91
54389;BME280;40975;50.390;8.640;2023-06-14T13:11:03;99054.72;;;24.14;40.02
54389;BME280;40975;50.390;8.640;2023-06-14T13:13:29;99054.75;;;24.55;41.59
54389;BME280;40975;50.390;8.640;2023-06-14T13:15:54;99055.91;;;24.71;40.22